DAL1026 KMSP-KATL
Flight info
| Callsign | DAL1026 |
|---|---|
| Flight time | 2h 0m |
| Altitude | 37000 |
| Route | ZMBRO7 ODI J30 BRIBE EDENS ENL PLESS J45 BNA NEWBB IHAVE MTHEW CHPPR1 |
| Aircraft | A321/M-SDE3FGHIRWY/LB1 |
Departure
| Time | 2026-05-05 00:38 |
|---|---|
| Airport | Minneapolis–Saint Paul International Airport / Wold–Chamberlain Field (KMSP) |
Arrival
| Time | 2026-05-05 02:39 |
|---|---|
| Airport | Hartsfield Jackson Atlanta International Airport (KATL) |
| Time | Latitude | Longitude | Altitude | Speed | Heading |
|---|---|---|---|---|---|
| 2026-05-04 23:39 | 44.88376 | -93.21394 | 825 ft | 0 kts | 219° |
| 2026-05-05 00:24 | 44.88386 | -93.21383 | 823 ft | 4 kts | 213° |
| 2026-05-05 00:24 | 44.88409 | -93.21367 | 823 ft | 4 kts | 184° |
| 2026-05-05 00:24 | 44.88415 | -93.21366 | 823 ft | 0 kts | 172° |
| 2026-05-05 00:26 | 44.88414 | -93.21366 | 825 ft | 1 kts | 173° |
| 2026-05-05 00:26 | 44.88413 | -93.21390 | 824 ft | 3 kts | 300° |
| 2026-05-05 00:27 | 44.88425 | -93.21404 | 822 ft | 1 kts | 319° |
| 2026-05-05 00:27 | 44.88436 | -93.21420 | 824 ft | 3 kts | 309° |
| 2026-05-05 00:27 | 44.88439 | -93.21429 | 823 ft | 0 kts | 301° |
| 2026-05-05 00:29 | 44.88440 | -93.21430 | 823 ft | 1 kts | 301° |
| 2026-05-05 00:29 | 44.88460 | -93.21474 | 823 ft | 7 kts | 303° |
| 2026-05-05 00:30 | 44.88485 | -93.21531 | 825 ft | 7 kts | 299° |
| 2026-05-05 00:30 | 44.88505 | -93.21609 | 826 ft | 13 kts | 282° |
| 2026-05-05 00:30 | 44.88466 | -93.21725 | 826 ft | 13 kts | 224° |
| 2026-05-05 00:30 | 44.88401 | -93.21815 | 824 ft | 13 kts | 224° |
| 2026-05-05 00:31 | 44.88339 | -93.21899 | 826 ft | 12 kts | 220° |
| 2026-05-05 00:31 | 44.88269 | -93.21923 | 825 ft | 10 kts | 153° |
| 2026-05-05 00:31 | 44.88225 | -93.21841 | 823 ft | 12 kts | 120° |
| 2026-05-05 00:31 | 44.88179 | -93.21731 | 824 ft | 14 kts | 121° |
| 2026-05-05 00:32 | 44.88124 | -93.21605 | 824 ft | 16 kts | 121° |
| 2026-05-05 00:32 | 44.88067 | -93.21476 | 823 ft | 15 kts | 122° |
| 2026-05-05 00:32 | 44.88013 | -93.21351 | 822 ft | 14 kts | 121° |
| 2026-05-05 00:32 | 44.87964 | -93.21238 | 825 ft | 13 kts | 121° |
| 2026-05-05 00:33 | 44.87918 | -93.21132 | 824 ft | 12 kts | 121° |
| 2026-05-05 00:33 | 44.87875 | -93.21032 | 826 ft | 13 kts | 121° |
| 2026-05-05 00:33 | 44.87824 | -93.20913 | 825 ft | 14 kts | 121° |
| 2026-05-05 00:33 | 44.87775 | -93.20800 | 826 ft | 13 kts | 121° |
| 2026-05-05 00:34 | 44.87729 | -93.20694 | 826 ft | 12 kts | 121° |
| 2026-05-05 00:34 | 44.87687 | -93.20596 | 823 ft | 12 kts | 121° |
| 2026-05-05 00:34 | 44.87643 | -93.20496 | 825 ft | 12 kts | 122° |
| 2026-05-05 00:34 | 44.87603 | -93.20402 | 826 ft | 11 kts | 122° |
| 2026-05-05 00:35 | 44.87564 | -93.20314 | 824 ft | 10 kts | 121° |
| 2026-05-05 00:35 | 44.87526 | -93.20226 | 826 ft | 10 kts | 121° |
| 2026-05-05 00:35 | 44.87490 | -93.20142 | 826 ft | 10 kts | 121° |
| 2026-05-05 00:35 | 44.87464 | -93.20096 | 826 ft | 9 kts | 142° |
| 2026-05-05 00:36 | 44.87400 | -93.20091 | 827 ft | 6 kts | 196° |
| 2026-05-05 00:36 | 44.87362 | -93.20117 | 827 ft | 5 kts | 209° |
| 2026-05-05 00:36 | 44.87360 | -93.20126 | 827 ft | 1 kts | 259° |
| 2026-05-05 00:36 | 44.87369 | -93.20161 | 827 ft | 1 kts | 298° |
| 2026-05-05 00:37 | 44.87371 | -93.20164 | 827 ft | 0 kts | 299° |
| 2026-05-05 00:37 | 44.87385 | -93.20198 | 827 ft | 17 kts | 301° |
| 2026-05-05 00:38 | 44.87584 | -93.20656 | 824 ft | 88 kts | 301° |
| 2026-05-05 00:38 | 44.87999 | -93.21608 | 824 ft | 138 kts | 302° |
| 2026-05-05 00:38 | 44.88511 | -93.22817 | 1332 ft | 141 kts | 304° |
| 2026-05-05 00:38 | 44.88990 | -93.23968 | 2154 ft | 132 kts | 302° |
| 2026-05-05 00:39 | 44.89440 | -93.25076 | 2840 ft | 128 kts | 301° |
| 2026-05-05 00:39 | 44.89844 | -93.26163 | 3457 ft | 125 kts | 294° |
| 2026-05-05 00:39 | 44.90049 | -93.27388 | 3895 ft | 142 kts | 271° |
| 2026-05-05 00:39 | 44.89650 | -93.28816 | 4153 ft | 173 kts | 245° |
| 2026-05-05 00:40 | 44.88913 | -93.30291 | 4436 ft | 197 kts | 240° |
| 2026-05-05 00:40 | 44.88046 | -93.31928 | 4655 ft | 221 kts | 240° |
| 2026-05-05 00:40 | 44.86855 | -93.33525 | 4981 ft | 258 kts | 213° |
| 2026-05-05 00:40 | 44.85014 | -93.34019 | 5582 ft | 286 kts | 176° |
| 2026-05-05 00:41 | 44.83141 | -93.32956 | 6424 ft | 298 kts | 146° |
| 2026-05-05 00:41 | 44.81585 | -93.30984 | 7255 ft | 304 kts | 134° |
| 2026-05-05 00:41 | 44.80217 | -93.28668 | 8060 ft | 311 kts | 129° |
| 2026-05-05 00:41 | 44.78906 | -93.26217 | 8860 ft | 317 kts | 129° |
| 2026-05-05 00:42 | 44.77564 | -93.23710 | 9649 ft | 323 kts | 130° |
| 2026-05-05 00:42 | 44.76161 | -93.21196 | 10255 ft | 334 kts | 132° |
| 2026-05-05 00:42 | 44.74629 | -93.18582 | 10511 ft | 357 kts | 134° |
| 2026-05-05 00:42 | 44.72971 | -93.15851 | 10825 ft | 375 kts | 134° |
| 2026-05-05 00:43 | 44.71239 | -93.13053 | 11479 ft | 382 kts | 135° |
| 2026-05-05 00:43 | 44.69472 | -93.10221 | 12180 ft | 388 kts | 135° |
| 2026-05-05 00:43 | 44.67678 | -93.07347 | 12899 ft | 393 kts | 136° |
| 2026-05-05 00:43 | 44.65865 | -93.04439 | 13607 ft | 398 kts | 136° |
| 2026-05-05 00:44 | 44.64036 | -93.01490 | 14235 ft | 403 kts | 133° |
| 2026-05-05 00:44 | 44.62222 | -92.98522 | 14816 ft | 408 kts | 137° |
| 2026-05-05 00:44 | 44.60339 | -92.95484 | 15423 ft | 414 kts | 137° |
| 2026-05-05 00:44 | 44.58430 | -92.92435 | 16042 ft | 418 kts | 138° |
| 2026-05-05 00:45 | 44.56495 | -92.89356 | 16620 ft | 423 kts | 138° |
| 2026-05-05 00:45 | 44.54541 | -92.86247 | 17258 ft | 427 kts | 139° |
| 2026-05-05 00:45 | 44.52570 | -92.83108 | 17866 ft | 431 kts | 139° |
| 2026-05-05 00:45 | 44.50582 | -92.79936 | 18408 ft | 436 kts | 139° |
| 2026-05-05 00:46 | 44.48577 | -92.76736 | 18949 ft | 439 kts | 139° |
| 2026-05-05 00:46 | 44.46580 | -92.73478 | 19475 ft | 445 kts | 135° |
| 2026-05-05 00:46 | 44.44844 | -92.69833 | 20020 ft | 455 kts | 127° |
| 2026-05-05 00:46 | 44.43223 | -92.66010 | 20546 ft | 458 kts | 127° |
| 2026-05-05 00:47 | 44.41590 | -92.62172 | 21099 ft | 460 kts | 127° |
| 2026-05-05 00:47 | 44.39946 | -92.58317 | 21612 ft | 463 kts | 127° |
| 2026-05-05 00:47 | 44.38288 | -92.54437 | 22117 ft | 465 kts | 127° |
| 2026-05-05 00:47 | 44.36617 | -92.50542 | 22670 ft | 468 kts | 127° |
| 2026-05-05 00:48 | 44.34935 | -92.46640 | 23192 ft | 471 kts | 128° |
| 2026-05-05 00:48 | 44.33240 | -92.42716 | 23612 ft | 473 kts | 128° |
| 2026-05-05 00:48 | 44.31531 | -92.38763 | 24015 ft | 476 kts | 127° |
| 2026-05-05 00:48 | 44.29818 | -92.34791 | 24415 ft | 479 kts | 127° |
| 2026-05-05 00:49 | 44.28090 | -92.30786 | 24830 ft | 482 kts | 127° |
| 2026-05-05 00:49 | 44.26353 | -92.26762 | 25232 ft | 485 kts | 127° |
| 2026-05-05 00:49 | 44.24598 | -92.22715 | 25629 ft | 488 kts | 128° |
| 2026-05-05 00:49 | 44.22858 | -92.18710 | 26009 ft | 491 kts | 128° |
| 2026-05-05 00:50 | 44.21085 | -92.14637 | 26382 ft | 494 kts | 128° |
| 2026-05-05 00:50 | 44.19294 | -92.10525 | 26718 ft | 496 kts | 127° |
| 2026-05-05 00:50 | 44.17502 | -92.06411 | 27123 ft | 498 kts | 127° |
| 2026-05-05 00:50 | 44.15702 | -92.02271 | 27494 ft | 501 kts | 127° |
| 2026-05-05 00:51 | 44.13891 | -91.98111 | 27858 ft | 504 kts | 127° |
| 2026-05-05 00:51 | 44.12069 | -91.93939 | 28235 ft | 506 kts | 127° |
| 2026-05-05 00:51 | 44.10227 | -91.89735 | 28597 ft | 509 kts | 127° |
| 2026-05-05 00:51 | 44.08381 | -91.85531 | 28906 ft | 511 kts | 127° |
| 2026-05-05 00:52 | 44.06523 | -91.81312 | 29256 ft | 513 kts | 127° |
| 2026-05-05 00:52 | 44.04653 | -91.77073 | 29577 ft | 515 kts | 127° |
| 2026-05-05 00:52 | 44.03167 | -91.73703 | 29796 ft | 517 kts | 127° |
| 2026-05-05 00:53 | 44.01524 | -91.69976 | 29982 ft | 519 kts | 127° |
| 2026-05-05 00:53 | 43.99634 | -91.65692 | 30303 ft | 521 kts | 127° |
| 2026-05-05 00:53 | 43.98436 | -91.62980 | 30490 ft | 522 kts | 127° |
| 2026-05-05 00:54 | 43.97541 | -91.60948 | 30638 ft | 522 kts | 127° |
| 2026-05-05 00:54 | 43.97496 | -91.60845 | 30644 ft | 522 kts | 127° |
| 2026-05-05 00:55 | 43.95595 | -91.56649 | 31003 ft | 521 kts | 128° |
| 2026-05-05 00:55 | 43.93680 | -91.52385 | 31442 ft | 520 kts | 127° |
| 2026-05-05 00:55 | 43.91734 | -91.48173 | 31833 ft | 516 kts | 132° |
| 2026-05-05 00:55 | 43.89504 | -91.44319 | 32231 ft | 508 kts | 140° |
| 2026-05-05 00:56 | 43.87058 | -91.40817 | 32644 ft | 505 kts | 142° |
| 2026-05-05 00:56 | 43.84626 | -91.37398 | 33036 ft | 504 kts | 142° |
| 2026-05-05 00:56 | 43.82157 | -91.33955 | 33380 ft | 504 kts | 142° |
| 2026-05-05 00:56 | 43.79683 | -91.30512 | 33794 ft | 503 kts | 142° |
| 2026-05-05 00:57 | 43.77224 | -91.27082 | 34154 ft | 502 kts | 142° |
| 2026-05-05 00:57 | 43.74768 | -91.23650 | 34482 ft | 502 kts | 142° |
| 2026-05-05 00:57 | 43.72311 | -91.20215 | 34811 ft | 502 kts | 141° |
| 2026-05-05 00:57 | 43.69858 | -91.16786 | 35145 ft | 501 kts | 141° |
| 2026-05-05 00:58 | 43.67405 | -91.13366 | 35456 ft | 501 kts | 141° |
| 2026-05-05 00:58 | 43.64953 | -91.09955 | 35808 ft | 500 kts | 141° |
| 2026-05-05 00:58 | 43.62505 | -91.06553 | 36091 ft | 499 kts | 141° |
| 2026-05-05 00:58 | 43.60051 | -91.03150 | 36381 ft | 499 kts | 141° |
| 2026-05-05 00:59 | 43.57598 | -90.99756 | 36654 ft | 500 kts | 141° |
| 2026-05-05 00:59 | 43.52694 | -90.92968 | 36743 ft | 498 kts | 141° |
| 2026-05-05 01:00 | 43.47812 | -90.86226 | 36741 ft | 497 kts | 141° |
| 2026-05-05 01:00 | 43.42923 | -90.79493 | 36721 ft | 496 kts | 141° |
| 2026-05-05 01:01 | 43.38035 | -90.72793 | 36702 ft | 495 kts | 140° |
| 2026-05-05 01:01 | 43.33166 | -90.66122 | 36686 ft | 494 kts | 140° |
| 2026-05-05 01:02 | 43.28307 | -90.59466 | 36665 ft | 494 kts | 140° |
| 2026-05-05 01:02 | 43.23438 | -90.52814 | 36678 ft | 494 kts | 141° |
| 2026-05-05 01:03 | 43.18602 | -90.46233 | 36664 ft | 493 kts | 141° |
| 2026-05-05 01:03 | 43.13725 | -90.39630 | 36671 ft | 493 kts | 141° |
| 2026-05-05 01:04 | 43.08846 | -90.33022 | 36672 ft | 493 kts | 141° |
| 2026-05-05 01:04 | 43.01524 | -90.23112 | 36637 ft | 495 kts | 140° |
| 2026-05-05 01:05 | 42.96613 | -90.16503 | 36670 ft | 496 kts | 141° |
| 2026-05-05 01:05 | 42.91712 | -90.09936 | 36701 ft | 497 kts | 141° |
| 2026-05-05 01:06 | 42.86773 | -90.03321 | 36725 ft | 497 kts | 141° |
| 2026-05-05 01:06 | 42.81287 | -89.97869 | 36734 ft | 481 kts | 160° |
| 2026-05-05 01:07 | 42.75086 | -89.95061 | 36716 ft | 461 kts | 179° |
| 2026-05-05 01:07 | 42.68811 | -89.94762 | 36707 ft | 447 kts | 191° |
| 2026-05-05 01:08 | 42.62617 | -89.95185 | 36701 ft | 447 kts | 191° |
| 2026-05-05 01:08 | 42.56396 | -89.95586 | 36684 ft | 448 kts | 191° |
| 2026-05-05 01:09 | 42.50155 | -89.95988 | 36709 ft | 449 kts | 191° |
| 2026-05-05 01:09 | 42.43912 | -89.96393 | 36738 ft | 449 kts | 191° |
| 2026-05-05 01:10 | 42.37668 | -89.96805 | 36707 ft | 449 kts | 190° |
| 2026-05-05 01:10 | 42.31417 | -89.97211 | 36719 ft | 450 kts | 190° |
| 2026-05-05 01:11 | 42.25205 | -89.97607 | 36732 ft | 450 kts | 190° |
| 2026-05-05 01:11 | 42.18945 | -89.98015 | 36716 ft | 450 kts | 190° |
| 2026-05-05 01:12 | 42.12694 | -89.98424 | 36758 ft | 449 kts | 190° |
| 2026-05-05 01:12 | 42.06448 | -89.98820 | 36766 ft | 449 kts | 190° |
| 2026-05-05 01:13 | 42.00210 | -89.99225 | 36761 ft | 449 kts | 190° |
| 2026-05-05 01:13 | 41.93962 | -89.99640 | 36719 ft | 449 kts | 190° |
| 2026-05-05 01:14 | 41.87717 | -90.00044 | 36666 ft | 450 kts | 190° |
| 2026-05-05 01:14 | 41.81458 | -90.00441 | 36701 ft | 450 kts | 190° |
| 2026-05-05 01:15 | 41.75183 | -90.00834 | 36683 ft | 451 kts | 189° |
| 2026-05-05 01:15 | 41.68957 | -90.01235 | 36718 ft | 452 kts | 189° |
| 2026-05-05 01:16 | 41.62662 | -90.01641 | 36733 ft | 452 kts | 189° |
| 2026-05-05 01:16 | 41.56373 | -90.02037 | 36763 ft | 453 kts | 189° |
| 2026-05-05 01:17 | 41.50079 | -90.02429 | 36763 ft | 453 kts | 189° |
| 2026-05-05 01:17 | 41.43779 | -90.02827 | 36777 ft | 453 kts | 189° |
| 2026-05-05 01:18 | 41.37472 | -90.03228 | 36784 ft | 453 kts | 189° |
| 2026-05-05 01:18 | 41.31175 | -90.03626 | 36767 ft | 453 kts | 189° |
| 2026-05-05 01:19 | 41.24913 | -90.04029 | 36778 ft | 453 kts | 189° |
| 2026-05-05 01:19 | 41.18613 | -90.04429 | 36785 ft | 453 kts | 189° |
| 2026-05-05 01:20 | 41.12288 | -90.04628 | 36751 ft | 459 kts | 181° |
| 2026-05-05 01:20 | 41.05980 | -90.02845 | 36763 ft | 467 kts | 171° |
| 2026-05-05 01:21 | 40.99684 | -90.00688 | 36762 ft | 467 kts | 172° |
| 2026-05-05 01:21 | 40.93378 | -89.98598 | 36764 ft | 467 kts | 171° |
| 2026-05-05 01:22 | 40.90235 | -89.97547 | 36576 ft | 466 kts | 171° |
| 2026-05-05 01:22 | 40.87102 | -89.96486 | 36597 ft | 464 kts | 171° |
| 2026-05-05 01:22 | 40.80896 | -89.94360 | 36619 ft | 463 kts | 170° |
| 2026-05-05 01:23 | 40.74664 | -89.92217 | 36656 ft | 463 kts | 170° |
| 2026-05-05 01:23 | 40.68436 | -89.90096 | 36662 ft | 462 kts | 171° |
| 2026-05-05 01:24 | 40.62210 | -89.87995 | 36664 ft | 462 kts | 171° |
| 2026-05-05 01:24 | 40.55980 | -89.85899 | 36662 ft | 461 kts | 171° |
| 2026-05-05 01:25 | 40.49763 | -89.83801 | 36653 ft | 461 kts | 171° |
| 2026-05-05 01:25 | 40.43551 | -89.81709 | 36629 ft | 461 kts | 171° |
| 2026-05-05 01:26 | 40.38377 | -89.79965 | 36631 ft | 462 kts | 171° |
| 2026-05-05 01:26 | 40.32151 | -89.77877 | 36630 ft | 462 kts | 171° |
| 2026-05-05 01:27 | 40.25922 | -89.75790 | 36643 ft | 462 kts | 171° |
| 2026-05-05 01:27 | 40.19675 | -89.73698 | 36633 ft | 463 kts | 171° |
| 2026-05-05 01:28 | 40.13423 | -89.71615 | 36641 ft | 464 kts | 171° |
| 2026-05-05 01:28 | 40.07164 | -89.69534 | 36653 ft | 464 kts | 171° |
| 2026-05-05 01:29 | 40.00904 | -89.67451 | 36639 ft | 464 kts | 171° |
| 2026-05-05 01:29 | 39.94633 | -89.65371 | 36650 ft | 465 kts | 171° |
| 2026-05-05 01:30 | 39.88352 | -89.63294 | 36665 ft | 465 kts | 171° |
| 2026-05-05 01:30 | 39.82075 | -89.61215 | 36663 ft | 466 kts | 171° |
| 2026-05-05 01:31 | 39.75796 | -89.59143 | 36638 ft | 466 kts | 172° |
| 2026-05-05 01:31 | 39.69490 | -89.57067 | 36651 ft | 468 kts | 172° |
| 2026-05-05 01:32 | 39.63174 | -89.54995 | 36678 ft | 468 kts | 172° |
| 2026-05-05 01:32 | 39.56866 | -89.52926 | 36657 ft | 469 kts | 172° |
| 2026-05-05 01:33 | 39.50572 | -89.50868 | 36670 ft | 470 kts | 172° |
| 2026-05-05 01:33 | 39.44219 | -89.48791 | 36678 ft | 472 kts | 172° |
| 2026-05-05 01:34 | 39.37841 | -89.46713 | 36688 ft | 473 kts | 172° |
| 2026-05-05 01:34 | 39.31456 | -89.44633 | 36669 ft | 474 kts | 172° |
| 2026-05-05 01:35 | 39.25042 | -89.42548 | 36677 ft | 476 kts | 172° |
| 2026-05-05 01:35 | 39.18599 | -89.40454 | 36687 ft | 478 kts | 172° |
| 2026-05-05 01:36 | 39.12146 | -89.38371 | 36698 ft | 478 kts | 172° |
| 2026-05-05 01:36 | 39.05691 | -89.36288 | 36690 ft | 480 kts | 172° |
| 2026-05-05 01:37 | 38.99180 | -89.34196 | 36705 ft | 482 kts | 172° |
| 2026-05-05 01:37 | 38.92660 | -89.32091 | 36713 ft | 483 kts | 172° |
| 2026-05-05 01:38 | 38.86127 | -89.29983 | 36705 ft | 486 kts | 172° |
| 2026-05-05 01:38 | 38.79538 | -89.27874 | 36718 ft | 489 kts | 172° |
| 2026-05-05 01:39 | 38.72924 | -89.25750 | 36722 ft | 490 kts | 172° |
| 2026-05-05 01:39 | 38.66347 | -89.23646 | 36752 ft | 490 kts | 172° |
| 2026-05-05 01:40 | 38.59730 | -89.21540 | 36765 ft | 490 kts | 172° |
| 2026-05-05 01:40 | 38.53115 | -89.19440 | 36771 ft | 490 kts | 172° |
| 2026-05-05 01:41 | 38.46494 | -89.17342 | 36770 ft | 490 kts | 172° |
| 2026-05-05 01:41 | 38.39886 | -89.15235 | 36768 ft | 490 kts | 172° |
| 2026-05-05 01:42 | 38.33284 | -89.13095 | 36771 ft | 490 kts | 172° |
| 2026-05-05 01:42 | 38.26663 | -89.10952 | 36773 ft | 490 kts | 172° |
| 2026-05-05 01:43 | 38.20047 | -89.08828 | 36768 ft | 490 kts | 172° |
| 2026-05-05 01:43 | 38.13432 | -89.06705 | 36746 ft | 491 kts | 173° |
| 2026-05-05 01:44 | 38.06787 | -89.04574 | 36752 ft | 493 kts | 173° |
| 2026-05-05 01:44 | 38.00119 | -89.02435 | 36751 ft | 495 kts | 173° |
| 2026-05-05 01:45 | 37.93477 | -89.00312 | 36760 ft | 496 kts | 173° |
| 2026-05-05 01:45 | 37.86769 | -88.98128 | 36783 ft | 502 kts | 169° |
| 2026-05-05 01:46 | 37.80396 | -88.94219 | 36793 ft | 518 kts | 149° |
| 2026-05-05 01:46 | 37.75059 | -88.88001 | 36798 ft | 526 kts | 133° |
| 2026-05-05 01:47 | 37.70179 | -88.81110 | 36794 ft | 526 kts | 134° |
| 2026-05-05 01:47 | 37.65271 | -88.74255 | 36806 ft | 526 kts | 134° |
| 2026-05-05 01:48 | 37.60362 | -88.67410 | 36815 ft | 526 kts | 134° |
| 2026-05-05 01:48 | 37.55453 | -88.60556 | 36818 ft | 526 kts | 134° |
| 2026-05-05 01:49 | 37.50548 | -88.53705 | 36820 ft | 526 kts | 134° |
| 2026-05-05 01:49 | 37.45640 | -88.46865 | 36807 ft | 527 kts | 134° |
| 2026-05-05 01:50 | 37.40746 | -88.40068 | 36832 ft | 526 kts | 134° |
| 2026-05-05 01:50 | 37.35826 | -88.33259 | 36837 ft | 526 kts | 134° |
| 2026-05-05 01:51 | 37.30909 | -88.26469 | 36840 ft | 525 kts | 134° |
| 2026-05-05 01:51 | 37.26107 | -88.19825 | 37210 ft | 512 kts | 132° |
| 2026-05-05 01:52 | 37.21263 | -88.13125 | 37201 ft | 524 kts | 134° |
| 2026-05-05 01:52 | 37.16296 | -88.06337 | 37234 ft | 529 kts | 135° |
| 2026-05-05 01:53 | 37.11344 | -87.99557 | 37003 ft | 526 kts | 134° |
| 2026-05-05 01:53 | 37.08883 | -87.96186 | 36795 ft | 520 kts | 135° |
| 2026-05-05 01:53 | 37.06443 | -87.92846 | 36850 ft | 522 kts | 135° |
| 2026-05-05 01:54 | 37.01526 | -87.86138 | 36853 ft | 524 kts | 135° |
| 2026-05-05 01:54 | 36.96600 | -87.79418 | 36829 ft | 524 kts | 135° |
| 2026-05-05 01:55 | 36.91637 | -87.72670 | 36858 ft | 529 kts | 135° |
| 2026-05-05 01:55 | 36.86649 | -87.65896 | 36903 ft | 529 kts | 135° |
| 2026-05-05 01:56 | 36.81670 | -87.59148 | 36901 ft | 527 kts | 135° |
| 2026-05-05 01:56 | 36.76727 | -87.52472 | 36890 ft | 526 kts | 135° |
| 2026-05-05 01:57 | 36.71758 | -87.45779 | 36855 ft | 525 kts | 132° |
| 2026-05-05 01:57 | 36.66803 | -87.39053 | 36866 ft | 528 kts | 135° |
| 2026-05-05 01:58 | 36.61792 | -87.32360 | 36898 ft | 528 kts | 135° |
| 2026-05-05 01:58 | 36.56793 | -87.25695 | 36915 ft | 526 kts | 135° |
| 2026-05-05 01:59 | 36.51825 | -87.19048 | 36931 ft | 524 kts | 135° |
| 2026-05-05 01:59 | 36.46870 | -87.12422 | 36939 ft | 523 kts | 135° |
| 2026-05-05 02:00 | 36.41905 | -87.05811 | 36893 ft | 524 kts | 135° |
| 2026-05-05 02:00 | 36.36915 | -86.99176 | 36895 ft | 526 kts | 135° |
| 2026-05-05 02:01 | 36.31918 | -86.92536 | 36931 ft | 526 kts | 135° |
| 2026-05-05 02:01 | 36.26926 | -86.85926 | 36945 ft | 524 kts | 135° |
| 2026-05-05 02:02 | 36.21941 | -86.79349 | 36943 ft | 523 kts | 135° |
| 2026-05-05 02:02 | 36.16966 | -86.72797 | 36930 ft | 523 kts | 135° |
| 2026-05-05 02:03 | 36.11483 | -86.66959 | 36929 ft | 517 kts | 151° |
| 2026-05-05 02:03 | 36.05302 | -86.62551 | 36934 ft | 516 kts | 155° |
| 2026-05-05 02:04 | 35.99055 | -86.58169 | 36960 ft | 516 kts | 155° |
| 2026-05-05 02:04 | 35.95947 | -86.55985 | 36659 ft | 513 kts | 154° |
| 2026-05-05 02:04 | 35.92861 | -86.53816 | 36258 ft | 505 kts | 154° |
| 2026-05-05 02:05 | 35.89825 | -86.51679 | 35804 ft | 500 kts | 154° |
| 2026-05-05 02:05 | 35.86811 | -86.49559 | 35293 ft | 496 kts | 154° |
| 2026-05-05 02:05 | 35.83823 | -86.47459 | 34837 ft | 493 kts | 154° |
| 2026-05-05 02:05 | 35.80851 | -86.45375 | 34352 ft | 489 kts | 154° |
| 2026-05-05 02:06 | 35.78893 | -86.44006 | 34018 ft | 486 kts | 154° |
| 2026-05-05 02:06 | 35.74969 | -86.41267 | 33221 ft | 483 kts | 154° |
| 2026-05-05 02:06 | 35.72059 | -86.39238 | 32944 ft | 481 kts | 154° |
| 2026-05-05 02:06 | 35.69154 | -86.37195 | 32958 ft | 482 kts | 153° |
| 2026-05-05 02:07 | 35.63320 | -86.33046 | 32962 ft | 485 kts | 153° |
| 2026-05-05 02:07 | 35.57477 | -86.28881 | 32965 ft | 485 kts | 153° |
| 2026-05-05 02:08 | 35.51633 | -86.24736 | 32987 ft | 485 kts | 153° |
| 2026-05-05 02:08 | 35.45812 | -86.20636 | 32989 ft | 485 kts | 153° |
| 2026-05-05 02:09 | 35.40226 | -86.15958 | 32982 ft | 489 kts | 144° |
| 2026-05-05 02:09 | 35.34894 | -86.10754 | 32985 ft | 490 kts | 144° |
| 2026-05-05 02:10 | 35.29541 | -86.05582 | 32994 ft | 490 kts | 144° |
| 2026-05-05 02:10 | 35.24188 | -86.00428 | 32998 ft | 490 kts | 144° |
| 2026-05-05 02:11 | 35.18828 | -85.95287 | 32998 ft | 490 kts | 144° |
| 2026-05-05 02:11 | 35.17050 | -85.93588 | 32833 ft | 491 kts | 144° |
| 2026-05-05 02:11 | 35.14354 | -85.91009 | 32555 ft | 493 kts | 144° |
| 2026-05-05 02:12 | 35.11658 | -85.88431 | 32294 ft | 492 kts | 144° |
| 2026-05-05 02:12 | 35.06267 | -85.83287 | 31788 ft | 491 kts | 144° |
| 2026-05-05 02:12 | 35.03579 | -85.80726 | 31536 ft | 490 kts | 144° |
| 2026-05-05 02:13 | 35.00892 | -85.78172 | 31276 ft | 489 kts | 144° |
| 2026-05-05 02:13 | 34.98215 | -85.75626 | 31030 ft | 488 kts | 144° |
| 2026-05-05 02:13 | 34.95536 | -85.73075 | 30786 ft | 487 kts | 144° |
| 2026-05-05 02:13 | 34.92867 | -85.70535 | 30542 ft | 487 kts | 144° |
| 2026-05-05 02:14 | 34.90201 | -85.68008 | 30287 ft | 486 kts | 144° |
| 2026-05-05 02:14 | 34.87536 | -85.65484 | 30042 ft | 486 kts | 144° |
| 2026-05-05 02:14 | 34.84860 | -85.62953 | 29760 ft | 486 kts | 144° |
| 2026-05-05 02:14 | 34.82189 | -85.60425 | 29479 ft | 486 kts | 144° |
| 2026-05-05 02:15 | 34.79522 | -85.57903 | 29201 ft | 486 kts | 145° |
| 2026-05-05 02:15 | 34.76855 | -85.55386 | 28925 ft | 486 kts | 144° |
| 2026-05-05 02:15 | 34.74180 | -85.52859 | 28650 ft | 486 kts | 144° |
| 2026-05-05 02:15 | 34.71511 | -85.50339 | 28384 ft | 486 kts | 144° |
| 2026-05-05 02:16 | 34.68837 | -85.47815 | 28114 ft | 486 kts | 144° |
| 2026-05-05 02:16 | 34.66169 | -85.45300 | 27847 ft | 486 kts | 144° |
| 2026-05-05 02:16 | 34.63498 | -85.42783 | 27576 ft | 486 kts | 144° |
| 2026-05-05 02:16 | 34.60831 | -85.40267 | 26742 ft | 487 kts | 144° |
| 2026-05-05 02:17 | 34.58128 | -85.37725 | 25446 ft | 495 kts | 144° |
| 2026-05-05 02:17 | 34.55390 | -85.35150 | 24218 ft | 500 kts | 144° |
| 2026-05-05 02:17 | 34.52642 | -85.32570 | 23299 ft | 497 kts | 144° |
| 2026-05-05 02:17 | 34.49919 | -85.30017 | 22450 ft | 491 kts | 144° |
| 2026-05-05 02:18 | 34.47236 | -85.27505 | 21665 ft | 484 kts | 144° |
| 2026-05-05 02:18 | 34.44599 | -85.25031 | 20927 ft | 476 kts | 144° |
| 2026-05-05 02:18 | 34.42028 | -85.22627 | 20194 ft | 469 kts | 144° |
| 2026-05-05 02:18 | 34.39464 | -85.20229 | 19470 ft | 463 kts | 144° |
| 2026-05-05 02:19 | 34.36901 | -85.17831 | 18748 ft | 456 kts | 146° |
| 2026-05-05 02:19 | 34.34414 | -85.15499 | 18046 ft | 449 kts | 144° |
| 2026-05-05 02:19 | 34.31977 | -85.13218 | 17626 ft | 436 kts | 144° |
| 2026-05-05 02:19 | 34.29577 | -85.10982 | 16679 ft | 435 kts | 145° |
| 2026-05-05 02:20 | 34.27215 | -85.08787 | 16113 ft | 427 kts | 145° |
| 2026-05-05 02:20 | 34.24916 | -85.06650 | 15555 ft | 419 kts | 145° |
| 2026-05-05 02:20 | 34.22628 | -85.04526 | 15010 ft | 411 kts | 145° |
| 2026-05-05 02:20 | 34.20381 | -85.02441 | 14495 ft | 404 kts | 144° |
| 2026-05-05 02:21 | 34.18171 | -85.00391 | 13971 ft | 398 kts | 144° |
| 2026-05-05 02:21 | 34.15984 | -84.98363 | 13371 ft | 393 kts | 144° |
| 2026-05-05 02:21 | 34.13803 | -84.96340 | 13040 ft | 400 kts | 144° |
| 2026-05-05 02:21 | 34.11595 | -84.94273 | 12975 ft | 402 kts | 144° |
| 2026-05-05 02:22 | 34.09399 | -84.92195 | 12992 ft | 403 kts | 143° |
| 2026-05-05 02:22 | 34.07187 | -84.90087 | 12992 ft | 403 kts | 143° |
| 2026-05-05 02:22 | 34.04985 | -84.87989 | 12987 ft | 403 kts | 143° |
| 2026-05-05 02:22 | 34.02782 | -84.85895 | 12992 ft | 403 kts | 144° |
| 2026-05-05 02:23 | 34.00575 | -84.83808 | 12993 ft | 404 kts | 144° |
| 2026-05-05 02:23 | 33.98364 | -84.81717 | 12996 ft | 404 kts | 144° |
| 2026-05-05 02:23 | 33.96156 | -84.79634 | 12849 ft | 401 kts | 144° |
| 2026-05-05 02:23 | 33.94003 | -84.77603 | 12664 ft | 384 kts | 144° |
| 2026-05-05 02:24 | 33.91974 | -84.75690 | 12535 ft | 368 kts | 144° |
| 2026-05-05 02:24 | 33.90004 | -84.73832 | 12411 ft | 352 kts | 144° |
| 2026-05-05 02:24 | 33.88089 | -84.72027 | 12283 ft | 338 kts | 144° |
| 2026-05-05 02:24 | 33.86274 | -84.70319 | 12140 ft | 325 kts | 144° |
| 2026-05-05 02:25 | 33.84550 | -84.68696 | 12011 ft | 313 kts | 144° |
| 2026-05-05 02:25 | 33.82860 | -84.67105 | 11988 ft | 305 kts | 144° |
| 2026-05-05 02:25 | 33.81187 | -84.65540 | 11996 ft | 304 kts | 144° |
| 2026-05-05 02:25 | 33.79516 | -84.63984 | 11999 ft | 304 kts | 144° |
| 2026-05-05 02:26 | 33.77845 | -84.62427 | 12002 ft | 304 kts | 144° |
| 2026-05-05 02:26 | 33.76195 | -84.60882 | 12001 ft | 304 kts | 144° |
| 2026-05-05 02:26 | 33.74676 | -84.59107 | 12003 ft | 307 kts | 128° |
| 2026-05-05 02:26 | 33.73674 | -84.56861 | 12002 ft | 302 kts | 110° |
| 2026-05-05 02:27 | 33.73301 | -84.54433 | 11894 ft | 291 kts | 91° |
| 2026-05-05 02:27 | 33.73325 | -84.52040 | 11771 ft | 281 kts | 91° |
| 2026-05-05 02:27 | 33.73329 | -84.49735 | 11647 ft | 271 kts | 91° |
| 2026-05-05 02:27 | 33.73323 | -84.47502 | 11456 ft | 264 kts | 91° |
| 2026-05-05 02:28 | 33.73314 | -84.45303 | 11165 ft | 262 kts | 91° |
| 2026-05-05 02:28 | 33.73309 | -84.43118 | 10864 ft | 260 kts | 91° |
| 2026-05-05 02:28 | 33.73306 | -84.40927 | 10553 ft | 259 kts | 91° |
| 2026-05-05 02:28 | 33.73302 | -84.38775 | 10251 ft | 257 kts | 91° |
| 2026-05-05 02:29 | 33.73296 | -84.36671 | 9946 ft | 256 kts | 91° |
| 2026-05-05 02:29 | 33.73292 | -84.34525 | 9626 ft | 255 kts | 91° |
| 2026-05-05 02:29 | 33.73291 | -84.32405 | 9302 ft | 253 kts | 91° |
| 2026-05-05 02:29 | 33.73290 | -84.30297 | 8992 ft | 252 kts | 91° |
| 2026-05-05 02:30 | 33.73292 | -84.28197 | 8685 ft | 250 kts | 91° |
| 2026-05-05 02:30 | 33.73295 | -84.26158 | 8385 ft | 249 kts | 92° |
| 2026-05-05 02:30 | 33.73298 | -84.24076 | 8090 ft | 247 kts | 92° |
| 2026-05-05 02:30 | 33.73302 | -84.22015 | 7797 ft | 246 kts | 92° |
| 2026-05-05 02:31 | 33.73305 | -84.19961 | 7523 ft | 245 kts | 92° |
| 2026-05-05 02:31 | 33.73307 | -84.17921 | 7234 ft | 244 kts | 92° |
| 2026-05-05 02:31 | 33.73305 | -84.15889 | 6953 ft | 242 kts | 92° |
| 2026-05-05 02:31 | 33.73302 | -84.13866 | 6686 ft | 241 kts | 92° |
| 2026-05-05 02:32 | 33.73297 | -84.11860 | 6412 ft | 240 kts | 93° |
| 2026-05-05 02:32 | 33.73024 | -84.09925 | 6120 ft | 232 kts | 120° |
| 2026-05-05 02:32 | 33.72007 | -84.08512 | 5826 ft | 222 kts | 153° |
| 2026-05-05 02:32 | 33.70565 | -84.08047 | 5531 ft | 215 kts | 186° |
| 2026-05-05 02:33 | 33.69200 | -84.08658 | 5257 ft | 211 kts | 218° |
| 2026-05-05 02:33 | 33.68330 | -84.10064 | 4863 ft | 213 kts | 241° |
| 2026-05-05 02:33 | 33.67703 | -84.11685 | 4439 ft | 215 kts | 244° |
| 2026-05-05 02:33 | 33.67108 | -84.13328 | 4070 ft | 214 kts | 244° |
| 2026-05-05 02:34 | 33.66520 | -84.14959 | 4009 ft | 214 kts | 244° |
| 2026-05-05 02:34 | 33.65930 | -84.16599 | 4008 ft | 214 kts | 244° |
| 2026-05-05 02:34 | 33.65311 | -84.18313 | 4019 ft | 234 kts | 244° |
| 2026-05-05 02:34 | 33.64894 | -84.20182 | 4006 ft | 227 kts | 264° |
| 2026-05-05 02:35 | 33.64909 | -84.21971 | 4002 ft | 204 kts | 268° |
| 2026-05-05 02:35 | 33.64935 | -84.23628 | 4023 ft | 194 kts | 267° |
| 2026-05-05 02:35 | 33.64944 | -84.25175 | 3981 ft | 175 kts | 266° |
| 2026-05-05 02:35 | 33.64947 | -84.26591 | 3848 ft | 164 kts | 265° |
| 2026-05-05 02:36 | 33.64948 | -84.27929 | 3669 ft | 159 kts | 265° |
| 2026-05-05 02:36 | 33.64947 | -84.29302 | 3246 ft | 167 kts | 265° |
| 2026-05-05 02:36 | 33.64949 | -84.30681 | 2798 ft | 164 kts | 265° |
| 2026-05-05 02:36 | 33.64951 | -84.32038 | 2356 ft | 159 kts | 265° |
| 2026-05-05 02:37 | 33.64953 | -84.33337 | 1943 ft | 152 kts | 263° |
| 2026-05-05 02:37 | 33.64974 | -84.34531 | 1953 ft | 140 kts | 263° |
| 2026-05-05 02:37 | 33.64978 | -84.35688 | 1915 ft | 137 kts | 263° |
| 2026-05-05 02:37 | 33.64964 | -84.36831 | 1787 ft | 137 kts | 263° |
| 2026-05-05 02:38 | 33.64955 | -84.37976 | 1607 ft | 137 kts | 265° |
| 2026-05-05 02:38 | 33.64944 | -84.39129 | 1424 ft | 139 kts | 266° |
| 2026-05-05 02:38 | 33.64955 | -84.40288 | 1208 ft | 138 kts | 267° |
| 2026-05-05 02:38 | 33.64953 | -84.41438 | 1045 ft | 132 kts | 266° |
| 2026-05-05 02:39 | 33.64952 | -84.42409 | 1036 ft | 91 kts | 270° |
| 2026-05-05 02:39 | 33.64951 | -84.42956 | 1035 ft | 43 kts | 270° |
| 2026-05-05 02:39 | 33.64929 | -84.43162 | 1036 ft | 13 kts | 255° |
| 2026-05-05 02:39 | 33.64908 | -84.43232 | 1036 ft | 18 kts | 248° |
| 2026-05-05 02:40 | 33.64853 | -84.43325 | 1036 ft | 8 kts | 226° |
| 2026-05-05 02:40 | 33.64839 | -84.43403 | 1036 ft | 15 kts | 272° |
| 2026-05-05 02:40 | 33.64824 | -84.43524 | 1036 ft | 13 kts | 227° |
| 2026-05-05 02:40 | 33.64750 | -84.43583 | 1036 ft | 13 kts | 210° |
| 2026-05-05 02:41 | 33.64672 | -84.43635 | 1035 ft | 13 kts | 209° |
| 2026-05-05 02:41 | 33.64593 | -84.43688 | 1035 ft | 13 kts | 209° |
| 2026-05-05 02:41 | 33.64509 | -84.43726 | 1036 ft | 13 kts | 189° |
| 2026-05-05 02:41 | 33.64420 | -84.43724 | 1036 ft | 13 kts | 178° |
| 2026-05-05 02:42 | 33.64331 | -84.43723 | 1036 ft | 13 kts | 180° |
| 2026-05-05 02:42 | 33.64241 | -84.43724 | 1036 ft | 13 kts | 180° |
| 2026-05-05 02:42 | 33.64151 | -84.43724 | 1036 ft | 13 kts | 179° |
| 2026-05-05 02:42 | 33.64059 | -84.43723 | 1036 ft | 13 kts | 180° |
| 2026-05-05 02:43 | 33.63966 | -84.43723 | 1036 ft | 13 kts | 180° |
| 2026-05-05 02:43 | 33.63945 | -84.43723 | 1036 ft | 0 kts | 180° |
| 2026-05-05 02:43 | 33.63940 | -84.43723 | 1036 ft | 4 kts | 180° |
| 2026-05-05 02:43 | 33.63875 | -84.43723 | 1036 ft | 10 kts | 180° |
| 2026-05-05 02:44 | 33.63827 | -84.43723 | 1036 ft | 4 kts | 174° |
| 2026-05-05 02:44 | 33.63807 | -84.43704 | 1036 ft | 3 kts | 134° |
| 2026-05-05 02:44 | 33.63796 | -84.43674 | 1036 ft | 6 kts | 103° |
| 2026-05-05 02:44 | 33.63795 | -84.43655 | 1036 ft | 1 kts | 91° |
| 2026-05-05 02:45 | 33.63795 | -84.43643 | 1036 ft | 0 kts | 90° |